Ohshima Kazumaru — JD2908 — position and weather

sailwx.info

Track history (hours):
 
Tides and Currents Weather Stations Pressure Air Temp Water Temp Dewpoint Dewpoint Depression Visibility Wind Speed Wind Dir Waves Ship Positions

Ohshima Kazumaru

Last reported at 2017-Jan-21 12:33 UTC. Time now 2017-Jan-21 13:23 UTC.
Position N 35°32' E 139°47'.

Length 69 m; draft 4 m.

Type: Cargo ship. MMSI: 431000925.

Date/timePositionNaut miles runAvg speedWind from/ knotsBaromVisibWave heightAir tempDewpointWater temp
2017-Jan-21 12:33N 35°32' E 139°47'0 0.0
2017-Jan-21 11:33N 35°32' E 139°47'0 0.0
2017-Jan-21 10:34N 35°32' E 139°47'0 0.0
2017-Jan-21 09:32N 35°32' E 139°47'0 0.0
2017-Jan-21 08:33N 35°32' E 139°47'0 0.0
2017-Jan-21 07:33N 35°32' E 139°47'0 0.0
2017-Jan-21 06:33N 35°32' E 139°47'0 0.0
2017-Jan-21 05:33N 35°32' E 139°47'0 0.0
2017-Jan-21 04:33N 35°32' E 139°47'0 0.0
2017-Jan-21 03:33N 35°32' E 139°47'0 0.0
2017-Jan-21 02:33N 35°32' E 139°47'0 0.0
2017-Jan-21 01:33N 35°32' E 139°47'0 0.0
2017-Jan-21 00:33N 35°32' E 139°47'2 2.0
2017-Jan-20 23:33N 35°31' E 139°49'0 0.1
2017-Jan-20 22:34N 35°31' E 139°50'0 0.0
2017-Jan-20 21:33N 35°31' E 139°50'0 0.0
2017-Jan-20 20:33N 35°31' E 139°50'0 0.0
2017-Jan-20 19:33N 35°31' E 139°50'0 0.0
2017-Jan-20 18:33N 35°31' E 139°50'0 0.0
2017-Jan-20 17:33N 35°31' E 139°50'0 0.0
2017-Jan-20 16:33N 35°31' E 139°50'0 0.1
2017-Jan-20 15:34N 35°31' E 139°49'1211.7
2017-Jan-20 14:33N 35°20' E 139°44'1311.2
2017-Jan-20 13:22N 35°06' E 139°45'  
2017-Jan-16 10:33N 35°13' E 139°46'9 8.7
2017-Jan-16 09:33N 35°20' E 139°40'0 0.1
2017-Jan-16 08:33N 35°20' E 139°40'0 0.0
2017-Jan-16 07:31N 35°20' E 139°40'0 0.0
2017-Jan-16 06:28N 35°20' E 139°40'0 0.1
2017-Jan-16 05:31N 35°20' E 139°40'0 0.0
2017-Jan-16 04:31N 35°20' E 139°40'0 0.0
2017-Jan-16 03:31N 35°20' E 139°40'0 0.0
2017-Jan-16 02:31N 35°20' E 139°40'0 0.0
2017-Jan-16 01:31N 35°20' E 139°40'0 0.0
2017-Jan-16 00:31N 35°20' E 139°40'0 0.1
2017-Jan-15 23:31N 35°20' E 139°40'0 0.0
2017-Jan-15 22:34N 35°20' E 139°40'5 4.4
2017-Jan-15 21:31N 35°25' E 139°41'0 0.0
2017-Jan-15 20:31N 35°25' E 139°41'0 0.0
2017-Jan-15 19:31N 35°25' E 139°41'0 0.0
2017-Jan-15 18:31N 35°25' E 139°41'0 0.0
2017-Jan-15 17:31N 35°25' E 139°41'0 0.0
2017-Jan-15 16:31N 35°25' E 139°41'0 0.0
2017-Jan-15 15:31N 35°25' E 139°41'0 0.0
2017-Jan-15 14:31N 35°25' E 139°41'0 0.0
2017-Jan-15 13:31N 35°25' E 139°41'0 0.0
2017-Jan-15 12:31N 35°25' E 139°41'0 0.0
2017-Jan-15 11:31N 35°25' E 139°41'0 0.0
2017-Jan-15 10:31N 35°25' E 139°41'0 0.0
2017-Jan-15 09:31N 35°25' E 139°41'0 0.0
2017-Jan-15 08:31N 35°25' E 139°41'0 0.0
2017-Jan-15 07:31N 35°25' E 139°41'0 0.1
2017-Jan-15 06:31N 35°25' E 139°41'0 0.0
2017-Jan-15 05:31N 35°25' E 139°41'0 0.0
2017-Jan-15 04:31N 35°25' E 139°41'0 0.0
2017-Jan-15 03:31N 35°25' E 139°41'0 0.0
2017-Jan-15 02:31N 35°25' E 139°41'0 0.0
2017-Jan-15 01:31N 35°25' E 139°41'0 0.0
2017-Jan-15 00:31N 35°25' E 139°41'0 0.0
2017-Jan-14 23:31N 35°25' E 139°41'0 0.0
2017-Jan-14 22:31N 35°25' E 139°41'0 0.0
2017-Jan-14 21:31N 35°25' E 139°41'0 0.0
2017-Jan-14 20:31N 35°25' E 139°41'0 0.0
2017-Jan-14 19:31N 35°25' E 139°41'0 0.0
2017-Jan-14 18:31N 35°25' E 139°41'0 0.0
2017-Jan-14 17:32N 35°25' E 139°41'0 0.0
2017-Jan-14 16:32N 35°25' E 139°41'0 0.0
2017-Jan-14 15:32N 35°25' E 139°41'0 0.0
2017-Jan-14 14:32N 35°25' E 139°41'0 0.0
2017-Jan-14 13:32N 35°25' E 139°41'0 0.0
2017-Jan-14 12:32N 35°25' E 139°41'0 0.0
2017-Jan-14 11:32N 35°25' E 139°41'0 0.0
2017-Jan-14 10:32N 35°25' E 139°41'0 0.0
2017-Jan-14 09:32N 35°25' E 139°41'0 0.0
2017-Jan-14 08:32N 35°25' E 139°41'0 0.0
2017-Jan-14 07:32N 35°25' E 139°41'0 0.0
2017-Jan-14 06:32N 35°25' E 139°41'0 0.0
2017-Jan-14 05:32N 35°25' E 139°41'0 0.0
2017-Jan-14 04:32N 35°25' E 139°41'0 0.0
2017-Jan-14 03:32N 35°25' E 139°41'0 0.0
2017-Jan-13 23:33N 35°25' E 139°41'0 0.0
2017-Jan-13 22:33N 35°25' E 139°41'0 0.0
2017-Jan-13 21:33N 35°25' E 139°41'0 0.0
2017-Jan-13 20:31N 35°25' E 139°41'0 0.0
2017-Jan-13 19:31N 35°25' E 139°41'0 0.0
2017-Jan-13 18:31N 35°25' E 139°41'0 0.1
2017-Jan-13 17:31N 35°25' E 139°41'0 0.0
2017-Jan-13 16:31N 35°25' E 139°41'0 0.1
2017-Jan-13 15:31N 35°25' E 139°41'0 0.1
2017-Jan-13 14:31N 35°25' E 139°41'0 0.0
2017-Jan-13 13:31N 35°25' E 139°41'0 0.0
2017-Jan-13 12:31N 35°25' E 139°41'0 0.0
2017-Jan-13 11:34N 35°25' E 139°41'1 1.0
2017-Jan-13 10:34N 35°26' E 139°42'7 7.0
2017-Jan-13 09:33N 35°32' E 139°47'0 0.0
2017-Jan-13 08:33N 35°32' E 139°47'0 0.0
2017-Jan-13 07:33N 35°32' E 139°47'0 0.0
2017-Jan-13 06:33N 35°32' E 139°47'0 0.0
2017-Jan-13 05:33N 35°32' E 139°47'0 0.0
2017-Jan-13 04:33N 35°32' E 139°47'0 0.0
2017-Jan-13 03:33N 35°32' E 139°47'0 0.0
2017-Jan-13 02:33N 35°32' E 139°47'0 0.0
2017-Jan-13 01:33N 35°32' E 139°47'0 0.0
2017-Jan-13 00:33N 35°32' E 139°47'0 0.0
2017-Jan-12 23:33N 35°32' E 139°47'0 0.0
2017-Jan-12 22:33N 35°32' E 139°47'2 2.2
2017-Jan-12 21:34N 35°31' E 139°50'0 0.0
2017-Jan-12 20:33N 35°31' E 139°50'0 0.0
2017-Jan-12 19:34N 35°31' E 139°50'0 0.0
2017-Jan-12 18:34N 35°31' E 139°50'0 0.0
2017-Jan-12 17:34N 35°31' E 139°50'0 0.0
2017-Jan-12 16:33N 35°31' E 139°50'7 6.7
2017-Jan-12 15:33N 35°25' E 139°46'1211.7
2017-Jan-12 14:34N 35°13' E 139°47'  
Track history (hours):
 
Tides and Currents Weather Stations Pressure Air Temp Water Temp Dewpoint Dewpoint Depression Visibility Wind Speed Wind Dir Waves Ship Positions

Ohshima Kazumaru

Last reported at 2017-Jan-21 12:33 UTC. Time now 2017-Jan-21 13:23 UTC.
Position N 35°32' E 139°47'.

Length 69 m; draft 4 m.

Type: Cargo ship. MMSI: 431000925.

Date/timePositionNaut miles runAvg speedWind from/ knotsBaromVisibWave heightAir tempDewpointWater temp
2017-Jan-21 12:33N 35°32' E 139°47'0 0.0
2017-Jan-21 11:33N 35°32' E 139°47'0 0.0
2017-Jan-21 10:34N 35°32' E 139°47'0 0.0
2017-Jan-21 09:32N 35°32' E 139°47'0 0.0
2017-Jan-21 08:33N 35°32' E 139°47'0 0.0
2017-Jan-21 07:33N 35°32' E 139°47'0 0.0
2017-Jan-21 06:33N 35°32' E 139°47'0 0.0
2017-Jan-21 05:33N 35°32' E 139°47'0 0.0
2017-Jan-21 04:33N 35°32' E 139°47'0 0.0
2017-Jan-21 03:33N 35°32' E 139°47'0 0.0
2017-Jan-21 02:33N 35°32' E 139°47'0 0.0
2017-Jan-21 01:33N 35°32' E 139°47'0 0.0
2017-Jan-21 00:33N 35°32' E 139°47'2 2.0
2017-Jan-20 23:33N 35°31' E 139°49'0 0.1
2017-Jan-20 22:34N 35°31' E 139°50'0 0.0
2017-Jan-20 21:33N 35°31' E 139°50'0 0.0
2017-Jan-20 20:33N 35°31' E 139°50'0 0.0
2017-Jan-20 19:33N 35°31' E 139°50'0 0.0
2017-Jan-20 18:33N 35°31' E 139°50'0 0.0
2017-Jan-20 17:33N 35°31' E 139°50'0 0.0
2017-Jan-20 16:33N 35°31' E 139°50'0 0.1
2017-Jan-20 15:34N 35°31' E 139°49'1211.7
2017-Jan-20 14:33N 35°20' E 139°44'1311.2
2017-Jan-20 13:22N 35°06' E 139°45'  
2017-Jan-16 10:33N 35°13' E 139°46'9 8.7
2017-Jan-16 09:33N 35°20' E 139°40'0 0.1
2017-Jan-16 08:33N 35°20' E 139°40'0 0.0
2017-Jan-16 07:31N 35°20' E 139°40'0 0.0
2017-Jan-16 06:28N 35°20' E 139°40'0 0.1
2017-Jan-16 05:31N 35°20' E 139°40'0 0.0
2017-Jan-16 04:31N 35°20' E 139°40'0 0.0
2017-Jan-16 03:31N 35°20' E 139°40'0 0.0
2017-Jan-16 02:31N 35°20' E 139°40'0 0.0
2017-Jan-16 01:31N 35°20' E 139°40'0 0.0
2017-Jan-16 00:31N 35°20' E 139°40'0 0.1
2017-Jan-15 23:31N 35°20' E 139°40'0 0.0
2017-Jan-15 22:34N 35°20' E 139°40'5 4.4
2017-Jan-15 21:31N 35°25' E 139°41'0 0.0
2017-Jan-15 20:31N 35°25' E 139°41'0 0.0
2017-Jan-15 19:31N 35°25' E 139°41'0 0.0
2017-Jan-15 18:31N 35°25' E 139°41'0 0.0
2017-Jan-15 17:31N 35°25' E 139°41'0 0.0
2017-Jan-15 16:31N 35°25' E 139°41'0 0.0
2017-Jan-15 15:31N 35°25' E 139°41'0 0.0
2017-Jan-15 14:31N 35°25' E 139°41'0 0.0
2017-Jan-15 13:31N 35°25' E 139°41'0 0.0
2017-Jan-15 12:31N 35°25' E 139°41'0 0.0
2017-Jan-15 11:31N 35°25' E 139°41'0 0.0
2017-Jan-15 10:31N 35°25' E 139°41'0 0.0
2017-Jan-15 09:31N 35°25' E 139°41'0 0.0
2017-Jan-15 08:31N 35°25' E 139°41'0 0.0
2017-Jan-15 07:31N 35°25' E 139°41'0 0.1
2017-Jan-15 06:31N 35°25' E 139°41'0 0.0
2017-Jan-15 05:31N 35°25' E 139°41'0 0.0
2017-Jan-15 04:31N 35°25' E 139°41'0 0.0
2017-Jan-15 03:31N 35°25' E 139°41'0 0.0
2017-Jan-15 02:31N 35°25' E 139°41'0 0.0
2017-Jan-15 01:31N 35°25' E 139°41'0 0.0
2017-Jan-15 00:31N 35°25' E 139°41'0 0.0
2017-Jan-14 23:31N 35°25' E 139°41'0 0.0
2017-Jan-14 22:31N 35°25' E 139°41'0 0.0
2017-Jan-14 21:31N 35°25' E 139°41'0 0.0
2017-Jan-14 20:31N 35°25' E 139°41'0 0.0
2017-Jan-14 19:31N 35°25' E 139°41'0 0.0
2017-Jan-14 18:31N 35°25' E 139°41'0 0.0
2017-Jan-14 17:32N 35°25' E 139°41'0 0.0
2017-Jan-14 16:32N 35°25' E 139°41'0 0.0
2017-Jan-14 15:32N 35°25' E 139°41'0 0.0
2017-Jan-14 14:32N 35°25' E 139°41'0 0.0
2017-Jan-14 13:32N 35°25' E 139°41'0 0.0
2017-Jan-14 12:32N 35°25' E 139°41'0 0.0
2017-Jan-14 11:32N 35°25' E 139°41'0 0.0
2017-Jan-14 10:32N 35°25' E 139°41'0 0.0
2017-Jan-14 09:32N 35°25' E 139°41'0 0.0
2017-Jan-14 08:32N 35°25' E 139°41'0 0.0
2017-Jan-14 07:32N 35°25' E 139°41'0 0.0
2017-Jan-14 06:32N 35°25' E 139°41'0 0.0
2017-Jan-14 05:32N 35°25' E 139°41'0 0.0
2017-Jan-14 04:32N 35°25' E 139°41'0 0.0
2017-Jan-14 03:32N 35°25' E 139°41'0 0.0
2017-Jan-13 23:33N 35°25' E 139°41'0 0.0
2017-Jan-13 22:33N 35°25' E 139°41'0 0.0
2017-Jan-13 21:33N 35°25' E 139°41'0 0.0
2017-Jan-13 20:31N 35°25' E 139°41'0 0.0
2017-Jan-13 19:31N 35°25' E 139°41'0 0.0
2017-Jan-13 18:31N 35°25' E 139°41'0 0.1
2017-Jan-13 17:31N 35°25' E 139°41'0 0.0
2017-Jan-13 16:31N 35°25' E 139°41'0 0.1
2017-Jan-13 15:31N 35°25' E 139°41'0 0.1
2017-Jan-13 14:31N 35°25' E 139°41'0 0.0
2017-Jan-13 13:31N 35°25' E 139°41'0 0.0
2017-Jan-13 12:31N 35°25' E 139°41'0 0.0
2017-Jan-13 11:34N 35°25' E 139°41'1 1.0
2017-Jan-13 10:34N 35°26' E 139°42'7 7.0
2017-Jan-13 09:33N 35°32' E 139°47'0 0.0
2017-Jan-13 08:33N 35°32' E 139°47'0 0.0
2017-Jan-13 07:33N 35°32' E 139°47'0 0.0
2017-Jan-13 06:33N 35°32' E 139°47'0 0.0
2017-Jan-13 05:33N 35°32' E 139°47'0 0.0
2017-Jan-13 04:33N 35°32' E 139°47'0 0.0
2017-Jan-13 03:33N 35°32' E 139°47'0 0.0
2017-Jan-13 02:33N 35°32' E 139°47'0 0.0
2017-Jan-13 01:33N 35°32' E 139°47'0 0.0
2017-Jan-13 00:33N 35°32' E 139°47'0 0.0
2017-Jan-12 23:33N 35°32' E 139°47'0 0.0
2017-Jan-12 22:33N 35°32' E 139°47'2 2.2
2017-Jan-12 21:34N 35°31' E 139°50'0 0.0
2017-Jan-12 20:33N 35°31' E 139°50'0 0.0
2017-Jan-12 19:34N 35°31' E 139°50'0 0.0
2017-Jan-12 18:34N 35°31' E 139°50'0 0.0
2017-Jan-12 17:34N 35°31' E 139°50'0 0.0
2017-Jan-12 16:33N 35°31' E 139°50'7 6.7
2017-Jan-12 15:33N 35°25' E 139°46'1211.7
2017-Jan-12 14:34N 35°13' E 139°47'  

Dump ship's entire track history